Time;durP1;ratioP1;P1;durP2;ratioP2;P2;SDS_P1;SDS_P2;PMS_P1;PMS_P2;Temp;Humidity;BMP_temperature;BMP_pressure;BME280_temperature;BME280_humidity;BME280_pressure;Samples;Min_cycle;Max_cycle;Signal;HPM_P1;HPM_P2
2024/01/05 00:01:38;;;;;;;18.67;12.85;;;3.30;99.90;;;;;;5071424;28;20572;-66
2024/01/05 00:04:03;;;;;;;20.23;13.25;;;3.40;99.90;;;;;;5071162;28;20387;-67
2024/01/05 00:06:29;;;;;;;17.63;13.02;;;3.40;99.90;;;;;;5071083;28;20402;-66
2024/01/05 00:08:56;;;;;;;17.27;12.20;;;3.30;99.90;;;;;;5072211;28;20947;-67
2024/01/05 00:11:21;;;;;;;20.65;12.52;;;3.40;99.90;;;;;;5072912;28;20411;-66
2024/01/05 00:13:50;;;;;;;20.08;12.88;;;3.40;99.90;;;;;;5070537;28;20936;-67
2024/01/05 00:16:21;;;;;;;16.88;12.15;;;3.40;99.90;;;;;;5069685;28;20403;-66
2024/01/05 00:18:47;;;;;;;20.27;12.40;;;3.40;99.90;;;;;;5071844;28;20773;-67
2024/01/05 00:21:33;;;;;;;18.58;12.38;;;3.40;99.90;;;;;;5070904;28;20987;-66
2024/01/05 00:23:59;;;;;;;18.13;12.18;;;3.40;99.90;;;;;;5071689;28;20431;-66
2024/01/05 00:26:25;;;;;;;19.57;12.43;;;3.40;99.90;;;;;;5053102;28;20978;-66
2024/01/05 00:28:51;;;;;;;19.92;12.57;;;3.40;99.90;;;;;;5071971;28;20884;-66
2024/01/05 00:31:17;;;;;;;18.38;11.68;;;3.40;99.90;;;;;;5071152;28;20523;-66
2024/01/05 00:33:44;;;;;;;19.23;11.73;;;3.40;99.90;;;;;;5069825;28;20625;-66
2024/01/05 00:36:10;;;;;;;20.60;11.82;;;3.30;99.90;;;;;;5071057;28;20398;-66
2024/01/05 00:38:37;;;;;;;19.95;12.23;;;3.30;99.90;;;;;;5070209;28;20772;-66
2024/01/05 00:41:04;;;;;;;21.60;13.00;;;3.30;99.90;;;;;;5053388;28;20975;-67
2024/01/05 00:43:29;;;;;;;19.48;12.50;;;3.30;99.90;;;;;;5070174;28;20399;-68
2024/01/05 00:45:55;;;;;;;19.65;12.93;;;3.30;99.90;;;;;;5052357;28;20402;-67
2024/01/05 00:48:21;;;;;;;24.15;12.27;;;3.30;99.90;;;;;;5070597;28;20451;-68
2024/01/05 00:50:47;;;;;;;22.30;13.77;;;3.30;99.90;;;;;;5070243;28;20903;-68
2024/01/05 00:53:13;;;;;;;23.52;13.82;;;3.30;99.90;;;;;;5070377;28;20423;-68
2024/01/05 00:55:39;;;;;;;20.37;12.87;;;3.30;99.90;;;;;;5052432;28;20399;-67
2024/01/05 00:58:05;;;;;;;24.97;14.73;;;3.30;99.90;;;;;;5070161;28;20907;-68
2024/01/05 01:00:31;;;;;;;21.73;14.33;;;3.30;99.90;;;;;;5068168;28;20403;-67
2024/01/05 01:02:57;;;;;;;25.77;15.60;;;3.30;99.90;;;;;;5070622;28;20685;-67
2024/01/05 01:05:22;;;;;;;25.60;15.77;;;3.30;99.90;;;;;;5069066;28;20495;-68
2024/01/05 01:07:48;;;;;;;23.92;17.08;;;3.30;99.90;;;;;;5066685;28;20413;-68
2024/01/05 01:10:14;;;;;;;25.95;17.02;;;3.30;99.90;;;;;;5068692;28;20408;-68
2024/01/05 01:12:41;;;;;;;28.17;17.70;;;3.30;99.90;;;;;;5069808;28;20493;-67
2024/01/05 01:15:07;;;;;;;24.75;16.88;;;3.30;99.90;;;;;;5071236;28;20454;-68
2024/01/05 01:17:34;;;;;;;25.90;17.83;;;3.30;99.90;;;;;;5052413;28;20449;-68
2024/01/05 01:19:59;;;;;;;27.77;18.48;;;3.30;99.90;;;;;;5070045;28;20395;-68
2024/01/05 01:22:25;;;;;;;31.67;18.27;;;3.30;99.90;;;;;;5069825;28;20469;-68
2024/01/05 01:24:51;;;;;;;26.35;18.45;;;3.30;99.90;;;;;;5070457;28;20856;-68
2024/01/05 01:27:19;;;;;;;29.83;18.47;;;3.30;99.90;;;;;;5069496;28;20738;-68
2024/01/05 01:29:45;;;;;;;29.58;18.45;;;3.30;99.90;;;;;;5070481;28;20399;-68
2024/01/05 01:32:11;;;;;;;26.63;18.10;;;3.30;99.90;;;;;;5068991;28;20934;-68
2024/01/05 01:34:40;;;;;;;25.10;17.33;;;3.30;99.90;;;;;;5070342;28;20453;-67
2024/01/05 01:37:06;;;;;;;29.65;18.58;;;3.40;99.90;;;;;;5068579;28;20399;-68
2024/01/05 01:39:32;;;;;;;27.15;17.45;;;3.30;99.90;;;;;;5069234;28;20403;-68
2024/01/05 01:41:58;;;;;;;25.92;17.17;;;3.30;99.90;;;;;;5070499;28;20391;-67
2024/01/05 01:44:24;;;;;;;24.05;16.17;;;3.30;99.90;;;;;;5068570;28;20427;-68
2024/01/05 01:46:51;;;;;;;27.17;17.38;;;3.30;99.90;;;;;;5068870;28;20410;-68
2024/01/05 01:49:18;;;;;;;31.55;18.25;;;3.30;99.90;;;;;;5069142;28;20404;-68
2024/01/05 01:51:45;;;;;;;26.03;17.23;;;3.30;99.90;;;;;;5070146;28;20967;-67
2024/01/05 01:54:10;;;;;;;27.70;18.07;;;3.30;99.90;;;;;;5051555;28;20896;-68
2024/01/05 01:56:37;;;;;;;29.10;18.93;;;3.30;99.90;;;;;;5069085;28;20402;-68
2024/01/05 01:59:04;;;;;;;30.95;18.90;;;3.30;99.90;;;;;;5069296;28;20427;-68
2024/01/05 02:01:30;;;;;;;28.47;18.10;;;3.30;99.90;;;;;;5068105;28;20460;-68
2024/01/05 02:03:56;;;;;;;27.03;17.97;;;3.30;99.90;;;;;;5069107;28;20491;-67
2024/01/05 02:06:22;;;;;;;28.08;18.58;;;3.30;99.90;;;;;;5066958;28;20395;-67
2024/01/05 02:08:48;;;;;;;29.60;18.13;;;3.30;99.90;;;;;;5069035;28;20452;-67
2024/01/05 02:11:14;;;;;;;29.23;18.40;;;3.30;99.90;;;;;;5069383;28;20419;-67
2024/01/05 02:13:40;;;;;;;27.83;18.07;;;3.30;99.90;;;;;;5069284;28;20399;-67
2024/01/05 02:16:06;;;;;;;28.53;19.50;;;3.30;99.90;;;;;;5067697;28;20403;-67
2024/01/05 02:18:32;;;;;;;30.93;19.60;;;3.30;99.90;;;;;;5068850;28;20418;-68
2024/01/05 02:21:00;;;;;;;30.40;19.75;;;3.30;99.90;;;;;;5050343;28;20534;-67
2024/01/05 02:23:31;;;;;;;31.70;20.10;;;3.30;99.90;;;;;;5067254;28;20407;-67
2024/01/05 02:26:02;;;;;;;31.13;20.17;;;3.40;99.90;;;;;;5068500;28;20414;-68
2024/01/05 02:28:28;;;;;;;30.07;20.37;;;3.40;99.90;;;;;;5068510;28;20404;-67
2024/01/05 02:30:55;;;;;;;32.20;21.17;;;3.40;99.90;;;;;;5068311;28;20480;-67
2024/01/05 02:33:21;;;;;;;33.63;21.42;;;3.40;99.90;;;;;;5068049;28;20395;-67
2024/01/05 02:35:47;;;;;;;31.55;21.58;;;3.40;99.90;;;;;;5068556;28;20581;-67
2024/01/05 02:38:12;;;;;;;34.55;22.35;;;3.40;99.90;;;;;;5067797;28;20749;-67
2024/01/05 02:40:38;;;;;;;36.65;22.88;;;3.40;99.90;;;;;;5068421;28;20398;-67
2024/01/05 02:43:04;;;;;;;38.40;23.60;;;3.40;99.90;;;;;;5068554;28;20399;-67
2024/01/05 02:45:31;;;;;;;35.40;23.43;;;3.40;99.90;;;;;;5069108;28;20404;-67
2024/01/05 02:47:56;;;;;;;37.35;23.48;;;3.40;99.90;;;;;;5050560;28;20399;-67
2024/01/05 02:50:22;;;;;;;33.33;22.92;;;3.40;99.90;;;;;;5067529;28;20403;-68
2024/01/05 02:52:48;;;;;;;34.50;24.23;;;3.40;99.90;;;;;;5068539;28;20400;-67
2024/01/05 02:55:14;;;;;;;39.20;25.07;;;3.40;99.90;;;;;;5068218;28;20392;-68
2024/01/05 02:57:41;;;;;;;34.42;23.73;;;3.40;99.90;;;;;;5069298;28;20399;-67
2024/01/05 03:00:08;;;;;;;41.13;25.55;;;3.40;99.90;;;;;;5067097;28;20422;-68
2024/01/05 03:02:34;;;;;;;38.13;25.33;;;3.30;99.90;;;;;;5033129;28;20923;-68
2024/01/05 03:05:00;;;;;;;39.85;24.92;;;3.40;99.90;;;;;;5066670;28;20396;-67
2024/01/05 03:07:26;;;;;;;40.63;26.40;;;3.40;99.90;;;;;;5066932;28;20387;-67
2024/01/05 03:09:52;;;;;;;43.05;26.38;;;3.40;99.90;;;;;;5068525;28;20388;-67
2024/01/05 03:12:18;;;;;;;39.20;26.38;;;3.30;99.90;;;;;;5049882;28;20427;-67
2024/01/05 03:14:44;;;;;;;42.25;27.60;;;3.30;99.90;;;;;;5067052;28;20403;-67
2024/01/05 03:17:10;;;;;;;45.20;27.93;;;3.40;99.90;;;;;;5067900;28;20399;-67
2024/01/05 03:19:35;;;;;;;44.27;28.43;;;3.40;99.90;;;;;;5067540;28;20934;-67
2024/01/05 03:22:01;;;;;;;41.17;26.60;;;3.40;99.90;;;;;;5067862;28;20573;-67
2024/01/05 03:24:27;;;;;;;46.13;28.52;;;3.40;99.90;;;;;;5067535;28;20388;-67
2024/01/05 03:26:53;;;;;;;46.80;29.25;;;3.40;99.90;;;;;;5066605;28;20772;-67
2024/01/05 03:29:18;;;;;;;48.30;30.27;;;3.40;99.90;;;;;;5066371;28;20522;-67
2024/01/05 03:31:44;;;;;;;52.72;31.05;;;3.40;99.90;;;;;;5068446;28;20435;-66
2024/01/05 03:34:11;;;;;;;43.42;29.00;;;3.40;99.90;;;;;;5068903;28;20857;-66
2024/01/05 03:36:37;;;;;;;45.22;29.40;;;3.40;99.90;;;;;;5067633;28;20483;-66
2024/01/05 03:39:03;;;;;;;40.72;27.92;;;3.40;99.90;;;;;;5068080;28;20433;-67
2024/01/05 03:41:29;;;;;;;39.00;27.13;;;3.40;99.90;;;;;;5067515;28;20413;-67
2024/01/05 03:43:55;;;;;;;38.28;26.77;;;3.40;99.90;;;;;;5066673;28;20408;-66
2024/01/05 03:46:21;;;;;;;37.10;26.42;;;3.40;99.90;;;;;;5066110;28;20770;-66
2024/01/05 03:48:46;;;;;;;41.53;28.37;;;3.40;99.90;;;;;;5067952;28;20396;-67
2024/01/05 03:51:12;;;;;;;40.20;27.10;;;3.40;99.90;;;;;;5067336;28;20484;-66
2024/01/05 03:53:38;;;;;;;37.90;26.75;;;3.40;99.90;;;;;;5067520;28;20898;-67
2024/01/05 03:56:04;;;;;;;45.08;29.50;;;3.40;99.90;;;;;;5065885;28;20437;-66
2024/01/05 03:58:30;;;;;;;39.60;27.20;;;3.40;99.90;;;;;;5066990;28;20400;-67
2024/01/05 04:00:56;;;;;;;38.25;26.42;;;3.40;99.90;;;;;;5067211;28;20927;-67
2024/01/05 04:03:22;;;;;;;42.03;27.30;;;3.50;99.90;;;;;;5049651;28;20408;-66
2024/01/05 04:05:47;;;;;;;40.37;27.60;;;3.50;99.90;;;;;;5067402;28;20449;-67
2024/01/05 04:08:13;;;;;;;39.30;27.43;;;3.50;99.90;;;;;;5050299;28;20788;-67
2024/01/05 04:10:39;;;;;;;41.28;28.90;;;3.50;99.90;;;;;;5067053;28;20414;-67
2024/01/05 04:13:05;;;;;;;45.30;30.48;;;3.50;99.90;;;;;;5068414;28;20399;-67
2024/01/05 04:15:38;;;;;;;40.40;28.42;;;3.50;99.90;;;;;;5050245;28;20857;-67
2024/01/05 04:18:05;;;;;;;42.85;29.77;;;3.50;99.90;;;;;;5068350;28;20888;-67
2024/01/05 04:20:31;;;;;;;44.80;30.30;;;3.50;99.90;;;;;;5067456;28;21086;-67
2024/01/05 04:22:57;;;;;;;49.20;31.80;;;3.60;99.90;;;;;;5067972;28;20420;-67
2024/01/05 04:25:23;;;;;;;46.63;31.07;;;3.60;99.90;;;;;;5067878;28;20396;-67
2024/01/05 04:27:49;;;;;;;47.33;31.83;;;3.60;99.90;;;;;;5068301;28;20399;-67
2024/01/05 04:30:15;;;;;;;42.72;29.10;;;3.60;99.90;;;;;;5071484;28;20408;-67
2024/01/05 04:32:43;;;;;;;45.47;30.90;;;3.60;99.90;;;;;;5071850;28;20444;-67
2024/01/05 04:35:09;;;;;;;41.58;29.15;;;3.70;99.90;;;;;;5071726;28;20396;-67
2024/01/05 04:37:35;;;;;;;44.47;30.13;;;3.70;99.90;;;;;;5037048;28;21047;-67
2024/01/05 04:40:01;;;;;;;40.25;29.60;;;3.70;99.90;;;;;;5070169;28;20392;-66
2024/01/05 04:42:27;;;;;;;38.50;28.35;;;3.70;99.90;;;;;;5071413;28;20402;-66
2024/01/05 04:44:53;;;;;;;37.95;27.58;;;3.80;99.90;;;;;;5071623;28;20873;-67
2024/01/05 04:47:18;;;;;;;42.13;29.48;;;3.80;99.90;;;;;;5073232;28;20390;-67
2024/01/05 04:49:44;;;;;;;39.33;28.73;;;3.80;99.90;;;;;;5074568;28;20395;-67
2024/01/05 04:52:11;;;;;;;43.93;30.53;;;3.80;99.90;;;;;;5071220;28;20924;-67
2024/01/05 04:54:36;;;;;;;;;;;3.80;99.90;;;;;;5073094;28;20358;-67
2024/01/05 04:57:02;;;;;;;;;;;3.60;99.90;;;;;;5054720;28;20008;-67
2024/01/05 04:59:28;;;;;;;;;;;3.50;99.90;;;;;;5071558;28;19920;-67
2024/01/05 05:01:53;;;;;;;;;;;3.50;99.90;;;;;;5072574;28;19916;-67
2024/01/05 05:04:19;;;;;;;;;;;3.40;99.90;;;;;;5071489;28;19969;-68
2024/01/05 05:06:45;;;;;;;;;;;3.40;99.90;;;;;;5072131;28;20011;-67
2024/01/05 05:09:11;;;;;;;;;;;3.40;99.90;;;;;;5074767;28;19920;-67
2024/01/05 05:11:38;;;;;;;;;;;3.40;99.90;;;;;;5076923;28;19920;-68
2024/01/05 05:14:04;;;;;;;;;;;3.40;99.90;;;;;;5071549;28;20381;-68
2024/01/05 05:16:29;;;;;;;;;;;3.40;99.90;;;;;;5072648;28;19917;-66
2024/01/05 05:18:55;;;;;;;;;;;3.40;99.90;;;;;;5072370;28;20436;-68
2024/01/05 05:21:24;;;;;;;;;;;3.40;99.90;;;;;;5071214;28;19942;-67
2024/01/05 05:23:49;;;;;;;;;;;3.40;99.90;;;;;;5071802;28;19935;-67
2024/01/05 05:26:15;;;;;;;;;;;3.40;99.90;;;;;;5072049;28;19920;-67
2024/01/05 05:28:40;;;;;;;;;;;3.40;99.90;;;;;;5054532;28;19916;-67
2024/01/05 05:31:06;;;;;;;;;;;3.50;99.90;;;;;;5070619;28;19959;-67
2024/01/05 05:33:32;;;;;;;;;;;3.40;99.90;;;;;;5071382;28;19930;-67
2024/01/05 05:35:58;;;;;;;;;;;3.40;99.90;;;;;;5070558;28;19916;-67
2024/01/05 05:38:23;;;;;;;;;;;3.50;99.90;;;;;;5070683;28;19917;-66
2024/01/05 05:40:49;;;;;;;;;;;3.50;99.90;;;;;;5072176;28;20454;-67
2024/01/05 05:43:14;;;;;;;;;;;3.50;99.90;;;;;;5071949;28;19924;-67
2024/01/05 05:45:41;;;;;;;;;;;3.50;99.90;;;;;;5070125;28;20277;-67
2024/01/05 05:48:07;;;;;;;;;;;3.50;99.90;;;;;;5071502;28;19916;-67
2024/01/05 05:50:32;;;;;;;;;;;3.50;99.90;;;;;;5072352;28;19916;-67
2024/01/05 05:52:58;;;;;;;;;;;3.60;99.90;;;;;;5071106;28;19916;-67
2024/01/05 05:55:23;;;;;;;;;;;3.60;99.90;;;;;;5072336;28;19923;-68
2024/01/05 05:57:49;;;;;;;;;;;3.60;99.90;;;;;;5071741;28;20300;-68
2024/01/05 06:00:15;;;;;;;;;;;3.60;99.90;;;;;;5072546;28;19942;-67
2024/01/05 06:02:41;;;;;;;;;;;3.60;99.90;;;;;;5071637;28;19966;-67
2024/01/05 06:05:06;;;;;;;;;;;3.60;99.90;;;;;;5069363;28;19994;-68
2024/01/05 06:07:32;;;;;;;;;;;3.70;99.90;;;;;;5075531;28;19916;-67
2024/01/05 06:09:58;;;;;;;;;;;3.60;99.90;;;;;;5071512;28;20020;-67
2024/01/05 06:12:24;;;;;;;;;;;3.60;99.90;;;;;;5071980;28;19927;-67
2024/01/05 06:14:50;;;;;;;;;;;3.70;99.90;;;;;;5071651;28;20004;-67
2024/01/05 06:17:15;;;;;;;;;;;3.70;99.90;;;;;;5071337;28;19923;-67
2024/01/05 06:19:43;;;;;;;;;;;3.70;99.90;;;;;;5070716;28;19920;-67
2024/01/05 06:22:08;;;;;;;;;;;3.70;99.90;;;;;;5069272;28;19928;-67
2024/01/05 06:24:34;;;;;;;;;;;3.70;99.90;;;;;;5071920;28;19920;-67
2024/01/05 06:26:59;;;;;;;;;;;3.80;99.90;;;;;;5069309;28;19916;-67
2024/01/05 06:29:25;;;;;;;;;;;3.80;99.90;;;;;;5070937;28;19924;-67
2024/01/05 06:31:51;;;;;;;;;;;3.70;99.90;;;;;;5071369;28;20007;-67
2024/01/05 06:34:16;;;;;;;;;;;3.80;99.90;;;;;;5071296;28;19924;-67
2024/01/05 06:36:43;;;;;;;;;;;3.80;99.90;;;;;;5053436;28;19916;-67
2024/01/05 06:39:08;;;;;;;;;;;3.80;99.90;;;;;;5070888;28;19924;-67
2024/01/05 06:41:34;;;;;;;24.70;11.73;;;3.80;99.90;;;;;;5069341;28;19939;-66
2024/01/05 06:44:00;;;;;;;40.40;17.35;;;3.80;99.90;;;;;;5068348;28;20408;-68
2024/01/05 06:46:27;;;;;;;63.00;34.55;;;3.90;99.90;;;;;;5070704;28;20032;-67
2024/01/05 06:48:54;;;;;;;32.35;15.25;;;3.80;99.90;;;;;;5069931;28;20111;-67
2024/01/05 06:51:23;;;;;;;47.20;18.80;;;3.90;99.90;;;;;;5050301;28;20428;-67
2024/01/05 06:53:49;;;;;;;65.32;38.85;;;3.90;99.90;;;;;;5068894;28;20421;-66
2024/01/05 06:56:14;;;;;;;73.03;40.97;;;4.00;99.90;;;;;;5068532;28;20860;-68
2024/01/05 06:58:40;;;;;;;66.13;40.60;;;4.10;99.90;;;;;;5069371;28;20412;-67
2024/01/05 07:01:06;;;;;;;66.18;40.30;;;4.20;99.90;;;;;;5065634;28;20398;-67
2024/01/05 07:03:32;;;;;;;68.82;40.80;;;4.30;99.90;;;;;;5064506;28;20800;-67
2024/01/05 07:05:58;;;;;;;74.82;42.45;;;4.40;99.90;;;;;;5067377;28;20400;-67
2024/01/05 07:08:24;;;;;;;69.37;40.60;;;4.40;99.90;;;;;;5067537;28;20498;-67
2024/01/05 07:10:49;;;;;;;72.70;41.47;;;4.40;99.90;;;;;;5069020;28;20933;-67
2024/01/05 07:13:15;;;;;;;73.32;41.70;;;4.40;99.90;;;;;;5068359;28;20400;-67
2024/01/05 07:15:41;;;;;;;73.15;41.97;;;4.40;99.90;;;;;;5068129;28;20446;-67
2024/01/05 07:18:07;;;;;;;69.85;41.45;;;4.50;99.90;;;;;;5067644;28;20407;-67
2024/01/05 07:20:33;;;;;;;71.82;43.20;;;4.50;99.90;;;;;;5068105;28;20863;-67
2024/01/05 07:22:59;;;;;;;74.50;43.08;;;4.60;99.90;;;;;;5068322;28;20840;-67
2024/01/05 07:25:25;;;;;;;68.22;41.40;;;4.60;99.90;;;;;;5066870;28;20412;-67
2024/01/05 07:27:51;;;;;;;69.28;41.47;;;4.70;99.90;;;;;;5064342;28;20422;-67
2024/01/05 07:30:17;;;;;;;71.25;41.05;;;4.70;99.90;;;;;;5067485;28;20773;-67
2024/01/05 07:32:43;;;;;;;68.30;41.20;;;4.70;99.90;;;;;;5067619;28;20428;-67
2024/01/05 07:35:10;;;;;;;67.45;41.10;;;4.70;99.90;;;;;;5065204;28;20391;-68
2024/01/05 07:37:38;;;;;;;70.30;41.30;;;4.70;99.90;;;;;;5066571;28;20411;-68
2024/01/05 07:40:04;;;;;;;71.32;42.13;;;4.70;99.90;;;;;;5066943;28;20461;-67
2024/01/05 07:42:31;;;;;;;73.07;43.13;;;4.80;99.90;;;;;;5067628;28;20410;-67
2024/01/05 07:44:57;;;;;;;67.53;41.78;;;4.80;99.90;;;;;;5046682;28;20506;-67
2024/01/05 07:47:24;;;;;;;72.03;41.95;;;4.80;99.90;;;;;;5067083;28;20399;-68
2024/01/05 07:49:49;;;;;;;75.10;44.50;;;4.80;99.90;;;;;;5064298;28;20421;-67
2024/01/05 07:52:16;;;;;;;73.47;42.70;;;4.90;99.90;;;;;;5064868;28;20418;-68
2024/01/05 07:54:42;;;;;;;71.85;43.10;;;4.90;99.90;;;;;;5064909;28;20908;-68
2024/01/05 07:57:09;;;;;;;68.65;41.72;;;4.90;99.90;;;;;;5066249;28;20426;-67
2024/01/05 07:59:35;;;;;;;69.65;42.53;;;4.90;99.90;;;;;;5065732;28;20456;-67
2024/01/05 08:02:01;;;;;;;69.90;42.63;;;4.90;99.90;;;;;;5065888;28;20451;-67
2024/01/05 08:04:28;;;;;;;68.07;41.78;;;4.90;99.90;;;;;;5067806;28;20780;-67
2024/01/05 08:06:53;;;;;;;66.65;41.50;;;4.90;99.90;;;;;;5067325;28;20415;-67
2024/01/05 08:09:19;;;;;;;73.00;42.70;;;5.00;99.90;;;;;;5097755;27;20404;-67
2024/01/05 08:11:45;;;;;;;71.37;41.73;;;5.00;99.90;;;;;;5071410;28;20430;-67
2024/01/05 08:14:10;;;;;;;70.80;41.70;;;5.00;99.90;;;;;;5069674;28;20506;-67
2024/01/05 08:16:36;;;;;;;68.50;40.80;;;5.00;99.90;;;;;;5070344;28;20411;-67
2024/01/05 08:19:02;;;;;;;66.70;40.93;;;5.00;99.90;;;;;;5069885;28;20494;-67
2024/01/05 08:21:28;;;;;;;68.97;41.15;;;5.10;99.90;;;;;;5071506;28;20543;-67
2024/01/05 08:23:54;;;;;;;70.18;40.42;;;5.10;99.90;;;;;;5069876;28;20424;-67
2024/01/05 08:26:20;;;;;;;74.47;41.10;;;5.10;99.90;;;;;;5071750;28;20396;-67
2024/01/05 08:28:46;;;;;;;69.28;41.38;;;5.20;99.90;;;;;;5071648;28;20403;-68
2024/01/05 08:31:12;;;;;;;57.15;38.25;;;5.10;99.90;;;;;;5070420;28;20596;-68
2024/01/05 08:33:38;;;;;;;65.05;39.92;;;5.20;99.90;;;;;;5070308;28;20419;-67
2024/01/05 08:36:04;;;;;;;61.75;39.25;;;5.10;99.90;;;;;;5051840;28;20997;-68
2024/01/05 08:38:29;;;;;;;64.80;39.33;;;5.10;99.90;;;;;;5069834;28;20662;-67
2024/01/05 08:40:55;;;;;;;68.83;41.20;;;5.20;99.90;;;;;;5070480;28;20452;-67
2024/01/05 08:43:21;;;;;;;66.75;39.92;;;5.20;99.90;;;;;;5073975;28;20432;-68
2024/01/05 08:45:47;;;;;;;68.15;39.35;;;5.30;99.90;;;;;;5077834;28;20398;-67
2024/01/05 08:48:15;;;;;;;66.37;40.33;;;5.30;99.90;;;;;;5055557;28;20534;-68
2024/01/05 08:50:41;;;;;;;66.78;38.72;;;5.40;99.90;;;;;;5057657;28;20406;-67
2024/01/05 08:53:08;;;;;;;63.95;37.70;;;5.40;99.90;;;;;;5074517;28;20458;-67
2024/01/05 08:55:35;;;;;;;67.35;39.45;;;5.40;99.90;;;;;;5076227;28;20412;-68
2024/01/05 08:58:02;;;;;;;63.83;38.72;;;5.40;99.90;;;;;;5073084;28;20912;-67
2024/01/05 09:00:28;;;;;;;57.40;36.53;;;5.40;99.90;;;;;;5076515;28;20406;-67
2024/01/05 09:02:55;;;;;;;57.45;32.72;;;5.40;99.90;;;;;;5077268;28;20050;-68
2024/01/05 09:05:21;;;;;;;48.70;30.55;;;5.30;99.90;;;;;;5058089;28;20109;-68
2024/01/05 09:07:48;;;;;;;58.83;33.55;;;5.20;99.90;;;;;;5060657;28;20516;-68
2024/01/05 09:10:14;;;;;;;58.45;32.35;;;5.10;99.90;;;;;;5057644;28;20047;-67
2024/01/05 09:12:40;;;;;;;50.35;30.65;;;5.10;99.90;;;;;;5078043;28;20032;-66
2024/01/05 09:15:07;;;;;;;49.65;30.35;;;5.00;99.90;;;;;;5057394;28;20035;-67
2024/01/05 09:17:33;;;;;;;27.98;13.35;;;5.00;99.90;;;;;;5073190;28;20042;-67
2024/01/05 09:20:00;;;;;;;40.83;17.75;;;5.00;99.90;;;;;;5049771;28;20782;-68
2024/01/05 09:22:25;;;;;;;49.42;32.25;;;5.00;99.90;;;;;;5065757;28;20410;-68
2024/01/05 09:24:52;;;;;;;48.90;29.42;;;5.10;99.90;;;;;;5067715;28;20099;-68
2024/01/05 09:27:18;;;;;;;49.15;28.48;;;5.00;99.90;;;;;;5063061;28;20079;-67
2024/01/05 09:29:43;;;;;;;52.25;33.03;;;5.00;99.90;;;;;;5069091;28;20471;-67
2024/01/05 09:32:09;;;;;;;46.85;31.42;;;5.20;99.90;;;;;;5053106;28;20429;-68
2024/01/05 09:34:35;;;;;;;;;;;5.30;99.90;;;;;;5053862;28;20036;-67
2024/01/05 09:37:00;;;;;;;30.77;12.02;;;5.20;99.90;;;;;;5071595;28;19923;-68
2024/01/05 09:39:26;;;;;;;34.90;14.80;;;5.20;99.90;;;;;;5070278;28;20414;-67
2024/01/05 09:41:52;;;;;;;43.03;27.98;;;5.20;99.90;;;;;;5073108;28;20385;-68
2024/01/05 09:44:18;;;;;;;;;;;5.20;99.90;;;;;;5073923;28;20046;-67
2024/01/05 09:46:44;;;;;;;42.47;25.55;;;5.20;99.90;;;;;;5068664;28;19944;-65
2024/01/05 09:49:13;;;;;;;;;;;5.20;99.90;;;;;;5073466;28;20060;-65
2024/01/05 09:51:39;;;;;;;;;;;5.20;99.90;;;;;;5071119;28;19928;-67
2024/01/05 09:54:05;;;;;;;;;;;5.20;99.90;;;;;;5073700;28;19923;-65
2024/01/05 09:56:31;;;;;;;;;;;5.20;99.90;;;;;;5075338;28;21218;-66
2024/01/05 09:58:57;;;;;;;;;;;5.20;99.90;;;;;;5071654;28;19924;-65
2024/01/05 10:01:33;;;;;;;;;;;5.20;99.90;;;;;;5071612;28;19958;-66
2024/01/05 10:04:01;;;;;;;;;;;5.20;99.90;;;;;;5074341;28;19926;-66
2024/01/05 10:06:28;;;;;;;;;;;5.20;99.90;;;;;;5075821;28;19953;-65
2024/01/05 10:08:54;;;;;;;;;;;5.20;99.90;;;;;;5072542;28;19982;-65
2024/01/05 10:11:30;;;;;;;;;;;5.20;99.90;;;;;;5069395;28;19923;-65
2024/01/05 10:14:00;;;;;;;27.15;12.32;;;5.20;99.90;;;;;;5070068;28;19920;-66
2024/01/05 10:16:34;;;;;;;40.22;16.13;;;5.20;99.90;;;;;;5069055;28;20404;-67
2024/01/05 10:19:25;;;;;;;60.55;34.40;;;5.20;99.90;;;;;;5067143;28;20411;-66
2024/01/05 10:21:51;;;;;;;60.88;34.95;;;5.40;99.90;;;;;;5064691;28;20415;-66
2024/01/05 10:24:29;;;;;;;57.47;30.75;;;5.60;99.90;;;;;;5067818;28;20132;-66
2024/01/05 10:27:04;;;;;;;61.63;34.58;;;5.50;99.90;;;;;;5065305;28;20479;-66
2024/01/05 10:29:30;;;;;;;57.53;33.30;;;5.70;99.90;;;;;;5069054;28;20399;-66
2024/01/05 10:32:08;;;;;;;;;;;5.90;99.90;;;;;;5070991;28;20047;-67
2024/01/05 10:34:34;;;;;;;;;;;5.70;99.90;;;;;;5066667;28;20401;-66
2024/01/05 10:37:04;;;;;;;;;;;5.70;99.90;;;;;;5067791;28;19916;-66
2024/01/05 10:39:30;;;;;;;;;;;5.70;99.90;;;;;;5067836;28;19924;-67
2024/01/05 10:42:14;;;;;;;;;;;5.80;99.90;;;;;;5068332;28;20377;-66
2024/01/05 10:44:40;;;;;;;;;;;5.80;99.90;;;;;;5070136;28;19917;-66
2024/01/05 10:47:06;;;;;;;;;;;5.80;99.90;;;;;;5067992;28;19920;-67
2024/01/05 10:49:32;;;;;;;;;;;5.90;99.90;;;;;;5068541;28;19924;-67
2024/01/05 10:51:59;;;;;;;;;;;6.00;99.90;;;;;;5069610;28;20341;-67
2024/01/05 10:54:24;;;;;;;;;;;6.00;99.90;;;;;;5069678;28;19917;-66
2024/01/05 10:56:54;;;;;;;;;;;6.10;99.90;;;;;;5067672;28;19916;-66
2024/01/05 10:59:20;;;;;;;;;;;6.10;99.90;;;;;;5069284;28;19942;-66
2024/01/05 11:01:46;;;;;;;;;;;6.10;99.90;;;;;;5067554;28;19924;-67
2024/01/05 11:04:13;;;;;;;;;;;6.20;99.90;;;;;;5070533;28;20383;-67
2024/01/05 11:06:38;;;;;;;;;;;6.20;99.90;;;;;;5070063;28;19974;-66
2024/01/05 11:09:30;;;;;;;;;;;6.20;99.90;;;;;;5067911;28;19967;-67
2024/01/05 11:11:57;;;;;;;;;;;6.10;99.90;;;;;;5065835;28;20404;-67
2024/01/05 11:14:26;;;;;;;;;;;6.10;99.90;;;;;;5067817;28;20291;-67
2024/01/05 11:17:00;;;;;;;;;;;6.00;99.90;;;;;;5048856;28;19982;-67
2024/01/05 11:19:26;;;;;;;;;;;6.00;99.90;;;;;;5069470;28;19916;-67
2024/01/05 11:22:08;;;;;;;;;;;5.90;99.90;;;;;;5069615;28;19925;-66
2024/01/05 11:24:35;;;;;;;;;;;5.90;99.90;;;;;;5052311;28;19924;-67
2024/01/05 11:27:20;;;;;;;;;;;5.90;99.90;;;;;;5070167;28;19917;-66
2024/01/05 11:29:53;;;;;;;;;;;5.90;99.90;;;;;;5093059;28;20021;-67
2024/01/05 11:32:35;;;;;;;;;;;5.90;99.90;;;;;;5065565;28;19954;-67
2024/01/05 11:35:01;;;;;;;;;;;6.00;99.90;;;;;;5067823;28;19917;-67
2024/01/05 11:37:28;;;;;;;;;;;6.00;99.90;;;;;;5051737;28;19927;-66
2024/01/05 11:39:53;;;;;;;;;;;6.10;99.90;;;;;;5055598;28;20011;-66
2024/01/05 11:42:25;;;;;;;;;;;6.10;99.90;;;;;;5071494;28;20015;-67
2024/01/05 11:44:54;;;;;;;;;;;6.20;99.90;;;;;;5073414;28;19963;-66
2024/01/05 11:47:43;;;;;;;;;;;6.20;99.90;;;;;;5055301;28;19995;-67
2024/01/05 11:50:24;;;;;;;;;;;6.30;99.90;;;;;;5060216;28;20007;-67
2024/01/05 11:53:07;;;;;;;;;;;6.30;99.90;;;;;;5072687;28;19964;-67
2024/01/05 11:55:39;;;;;;;;;;;6.30;99.90;;;;;;5071631;28;19924;-66
2024/01/05 11:58:08;;;;;;;;;;;6.30;99.90;;;;;;5072721;28;20045;-67
2024/01/05 12:00:36;;;;;;;;;;;6.30;99.90;;;;;;5069736;28;19942;-67
2024/01/05 12:03:02;;;;;;;;;;;6.30;99.90;;;;;;5054442;28;20081;-68
2024/01/05 12:05:28;;;;;;;1.20;1.10;;;6.30;99.90;;;;;;5071604;28;19922;-67
2024/01/05 12:07:58;;;;;;;1.52;1.25;;;6.30;99.90;;;;;;5067811;28;20985;-67
2024/01/05 12:10:27;;;;;;;2.40;1.90;;;6.30;99.90;;;;;;5071868;28;20523;-67
2024/01/05 12:12:54;;;;;;;2.50;1.80;;;6.40;99.90;;;;;;5068526;28;20815;-67
2024/01/05 12:15:20;;;;;;;2.73;1.90;;;6.50;99.90;;;;;;5070829;28;20439;-67
2024/01/05 12:17:49;;;;;;;3.40;2.15;;;6.60;99.90;;;;;;5050795;28;20938;-67
2024/01/05 12:20:17;;;;;;;2.70;2.08;;;6.70;99.90;;;;;;5073096;28;20756;-67
2024/01/05 12:22:43;;;;;;;2.73;2.20;;;6.70;99.90;;;;;;5071533;28;20423;-67
2024/01/05 12:25:09;;;;;;;3.00;2.10;;;6.80;99.90;;;;;;5071636;28;20772;-67
2024/01/05 12:27:39;;;;;;;4.75;2.47;;;6.80;99.90;;;;;;5070376;28;20407;-67
2024/01/05 12:30:06;;;;;;;6.07;2.50;;;6.90;99.90;;;;;;5069587;28;20422;-67
2024/01/05 12:32:35;;;;;;;6.38;2.85;;;6.80;99.90;;;;;;5068906;28;20497;-66
2024/01/05 12:35:02;;;;;;;5.05;3.13;;;6.90;99.90;;;;;;5069159;28;20912;-66
2024/01/05 12:37:28;;;;;;;5.28;3.50;;;6.90;99.90;;;;;;5072269;28;20489;-67
2024/01/05 12:39:54;;;;;;;5.00;3.10;;;7.00;99.90;;;;;;5068632;28;20418;-67
2024/01/05 12:42:20;;;;;;;5.55;3.50;;;7.00;99.90;;;;;;5065445;28;20404;-67
2024/01/05 12:44:46;;;;;;;3.83;2.80;;;7.00;99.90;;;;;;5070030;28;20464;-67
2024/01/05 12:47:12;;;;;;;3.35;2.63;;;6.70;99.90;;;;;;5071506;28;20046;-67
2024/01/05 12:49:38;;;;;;;5.88;3.08;;;6.60;99.90;;;;;;5070540;28;20112;-66
2024/01/05 12:52:10;;;;;;;4.63;2.67;;;6.50;99.90;;;;;;5052401;28;20123;-67
2024/01/05 12:54:42;;;;;;;3.70;2.50;;;6.40;99.90;;;;;;5071207;28;20036;-66
2024/01/05 12:57:09;;;;;;;;;;;6.30;99.90;;;;;;5071263;28;20028;-67
2024/01/05 12:59:36;;;;;;;;;;;6.30;99.90;;;;;;5069076;28;19923;-67
2024/01/05 13:02:03;;;;;;;;;;;6.30;99.90;;;;;;5068674;28;19924;-66
2024/01/05 13:04:33;;;;;;;;;;;6.20;99.90;;;;;;5094026;27;20492;-67
2024/01/05 13:07:00;;;;;;;;;;;6.20;99.90;;;;;;5072526;28;19939;-66
2024/01/05 13:09:25;;;;;;;;;;;6.20;99.90;;;;;;5073371;28;19981;-67